Links & Downloads

Hier präsentieren wir eine Auswahl wichtiger Downloads und interessanter Internetseiten. Wir versuchen, diese Seite immer auf aktuellem Stand zu halten.

Dokumente & Programme

  FluPP, ein kostenloses Flugbuch für Windows, mit dem man seine Flüge (Segelflug, Ultraleicht, Motorsegler, Motorflug...) verwalten kann
 
OLC - SegelflugszeneOLC - Segelflugszene

  Alle Streckenflüge des VfS |   Streckenflüge ab Krefeld |   Landesliga - Tabelle

Wetter


METAR / TAF Düsseldorf

[Quelle: ADDS]
METAR
EDDL 161450Z 25011KT CAVOK 22/11 Q1020 NOSIG =
EDDL 161100Z 1612/1718 24012KT CAVOK PROB30 TEMPO 1612/1614 24015G25KT BECMG 1615/1618 25006KT BECMG 1618/1621 VRB03KT BECMG 1705/1708 17006KT BECMG 1715/1718 08005KT
TAF
EDDL 161100Z 1612/1718 24012KT CAVOK PROB30 TEMPO 1612/1614 24015G25KT BECMG 1615/1618 25006KT BECMG 1618/1621 VRB03KT BECMG 1705/1708 17006KT BECMG 1715/1718 08005KT =
SR / SS: 03:16 / 19:50 UTC ( 2019-06-16)

Luftsportportale

Verbände

Behörden

 
Bundesamt für Naturschutz:
Gebiete mit Vogelvorkommen mit besonderer Luftfahrtrelevanz (Aircraft relevant Bird Area)
1.   Allgemein
2.   Niederrhein

Fliegerärzte

Vereinsflieger